Time;durP1;ratioP1;P1;durP2;ratioP2;P2;SDS_P1;SDS_P2;PMS_P1;PMS_P2;Temp;Humidity;BMP_temperature;BMP_pressure;BME280_temperature;BME280_humidity;BME280_pressure;Samples;Min_cycle;Max_cycle;Signal;HPM_P1;HPM_P2
2021/09/13 00:02:13;;;;;;;7.18;3.08;;;;;;;;;;4815778;29;52354;-65
2021/09/13 00:04:38;;;;;;;12.07;3.00;;;;;;;;;;4815742;29;54207;-65
2021/09/13 00:07:04;;;;;;;6.47;2.90;;;;;;;;;;4815074;29;52272;-65
2021/09/13 00:09:31;;;;;;;4.88;3.30;;;;;;;;;;4815651;29;52282;-66
2021/09/13 00:11:57;;;;;;;2.97;2.42;;;;;;;;;;4815534;29;52267;-66
2021/09/13 00:14:23;;;;;;;3.75;2.70;;;;;;;;;;4815521;29;52313;-67
2021/09/13 00:16:49;;;;;;;5.72;3.17;;;;;;;;;;4815547;29;52393;-65
2021/09/13 00:19:15;;;;;;;7.95;2.92;;;;;;;;;;4815288;29;53577;-65
2021/09/13 00:21:40;;;;;;;9.05;3.20;;;;;;;;;;4817244;29;52464;-64
2021/09/13 00:24:06;;;;;;;5.32;2.80;;;;;;;;;;4815410;29;53070;-66
2021/09/13 00:26:32;;;;;;;6.65;3.10;;;;;;;;;;4816135;29;52348;-66
2021/09/13 00:28:58;;;;;;;5.47;3.30;;;;;;;;;;4815104;29;52223;-65
2021/09/13 00:31:24;;;;;;;9.25;2.97;;;;;;;;;;4815040;29;52444;-65
2021/09/13 00:33:50;;;;;;;4.53;2.70;;;;;;;;;;4815043;29;53537;-66
2021/09/13 00:36:16;;;;;;;4.78;3.13;;;;;;;;;;4808979;29;53806;-66
2021/09/13 00:38:42;;;;;;;4.45;2.42;;;;;;;;;;4815106;29;52347;-66
2021/09/13 00:41:08;;;;;;;3.97;2.78;;;;;;;;;;4820154;29;53720;-66
2021/09/13 00:43:34;;;;;;;3.83;2.60;;;;;;;;;;4814887;29;52640;-65
2021/09/13 00:46:00;;;;;;;6.95;3.20;;;;;;;;;;4814603;29;52263;-67
2021/09/13 00:48:26;;;;;;;5.28;2.65;;;;;;;;;;4814349;29;52344;-65
2021/09/13 00:50:53;;;;;;;4.75;2.63;;;;;;;;;;4814561;29;52223;-65
2021/09/13 00:53:19;;;;;;;7.25;2.60;;;;;;;;;;4815062;29;52270;-65
2021/09/13 00:55:45;;;;;;;4.78;2.88;;;;;;;;;;4812851;29;52250;-66
2021/09/13 00:58:12;;;;;;;6.35;2.70;;;;;;;;;;4815302;29;52272;-66
2021/09/13 01:00:38;;;;;;;6.22;2.33;;;;;;;;;;4813371;29;52272;-67
2021/09/13 01:03:04;;;;;;;7.18;2.22;;;;;;;;;;4814799;29;54064;-65
2021/09/13 01:05:30;;;;;;;4.25;2.47;;;;;;;;;;4814835;29;52306;-65
2021/09/13 01:07:56;;;;;;;5.07;2.40;;;;;;;;;;4818043;29;52370;-65
2021/09/13 01:10:22;;;;;;;4.78;2.40;;;;;;;;;;4817628;29;52398;-66
2021/09/13 01:12:48;;;;;;;10.32;2.60;;;;;;;;;;4817127;29;52284;-65
2021/09/13 01:15:14;;;;;;;3.75;2.40;;;;;;;;;;4816756;29;52306;-67
2021/09/13 01:17:41;;;;;;;2.80;2.00;;;;;;;;;;4817171;29;52154;-64
2021/09/13 01:20:08;;;;;;;3.25;2.03;;;;;;;;;;4816114;29;52453;-66
2021/09/13 01:22:34;;;;;;;4.10;2.20;;;;;;;;;;4817273;29;52256;-65
2021/09/13 01:25:00;;;;;;;4.07;2.08;;;;;;;;;;4817502;29;52631;-64
2021/09/13 01:27:27;;;;;;;6.47;2.17;;;;;;;;;;4839723;29;52276;-63
2021/09/13 01:29:53;;;;;;;5.63;2.20;;;;;;;;;;4841280;29;51642;-66
2021/09/13 01:32:19;;;;;;;9.18;2.40;;;;;;;;;;4840522;29;52193;-65
2021/09/13 01:34:45;;;;;;;4.32;2.13;;;;;;;;;;4818528;29;52325;-65
2021/09/13 01:37:11;;;;;;;3.17;2.00;;;;;;;;;;4816685;29;52350;-64
2021/09/13 01:39:37;;;;;;;4.47;1.95;;;;;;;;;;4816610;29;52472;-65
2021/09/13 01:42:03;;;;;;;4.30;1.77;;;;;;;;;;4813734;29;52294;-65
2021/09/13 01:44:29;;;;;;;3.53;1.92;;;;;;;;;;4814341;29;52352;-65
2021/09/13 01:46:55;;;;;;;5.95;1.98;;;;;;;;;;4813662;29;53419;-64
2021/09/13 01:49:21;;;;;;;3.58;1.95;;;;;;;;;;4796993;29;52344;-64
2021/09/13 01:51:47;;;;;;;6.25;2.17;;;;;;;;;;4812764;29;52738;-65
2021/09/13 01:54:14;;;;;;;4.43;2.30;;;;;;;;;;4812903;29;52345;-66
2021/09/13 01:56:40;;;;;;;5.30;2.58;;;;;;;;;;4814476;29;52195;-67
2021/09/13 01:59:06;;;;;;;6.38;2.20;;;;;;;;;;4816287;29;52336;-65
2021/09/13 02:01:32;;;;;;;4.28;2.10;;;;;;;;;;4816477;29;52338;-66
2021/09/13 02:03:58;;;;;;;6.25;2.13;;;;;;;;;;4816082;29;52872;-66
2021/09/13 02:06:24;;;;;;;5.18;2.60;;;;;;;;;;4816580;29;52355;-65
2021/09/13 02:08:50;;;;;;;4.75;2.50;;;;;;;;;;4815179;29;54064;-65
2021/09/13 02:11:16;;;;;;;3.90;2.35;;;;;;;;;;4815732;29;52465;-65
2021/09/13 02:13:42;;;;;;;9.32;2.80;;;;;;;;;;4816964;29;52344;-67
2021/09/13 02:16:08;;;;;;;4.32;2.42;;;;;;;;;;4816587;29;54034;-65
2021/09/13 02:18:34;;;;;;;3.60;2.47;;;;;;;;;;4812926;29;52545;-65
2021/09/13 02:21:00;;;;;;;4.88;2.13;;;;;;;;;;4816250;29;52468;-66
2021/09/13 02:23:26;;;;;;;4.07;2.33;;;;;;;;;;4813865;29;52309;-65
2021/09/13 02:25:52;;;;;;;6.47;2.15;;;;;;;;;;4816497;29;52831;-67
2021/09/13 02:28:18;;;;;;;5.15;2.25;;;;;;;;;;4815546;29;52251;-65
2021/09/13 02:30:44;;;;;;;5.10;2.40;;;;;;;;;;4814987;29;52333;-67
2021/09/13 02:33:10;;;;;;;5.72;1.83;;;;;;;;;;4816204;29;52328;-66
2021/09/13 02:35:36;;;;;;;4.47;2.42;;;;;;;;;;4816270;29;52280;-66
2021/09/13 02:38:02;;;;;;;4.82;2.55;;;;;;;;;;4817237;29;53506;-66
2021/09/13 02:40:28;;;;;;;5.55;1.98;;;;;;;;;;4815313;29;53957;-65
2021/09/13 02:42:55;;;;;;;4.65;2.33;;;;;;;;;;4764325;29;52441;-65
2021/09/13 02:45:22;;;;;;;7.07;2.28;;;;;;;;;;4823812;29;52306;-64
2021/09/13 02:47:48;;;;;;;4.28;2.30;;;;;;;;;;4795613;29;52376;-64
2021/09/13 02:50:14;;;;;;;2.72;1.80;;;;;;;;;;4809050;29;52362;-64
2021/09/13 02:52:40;;;;;;;6.85;2.33;;;;;;;;;;4814863;29;53735;-67
2021/09/13 02:55:06;;;;;;;2.38;1.70;;;;;;;;;;4815024;29;52343;-65
2021/09/13 02:57:32;;;;;;;3.17;1.95;;;;;;;;;;4817556;29;52345;-64
2021/09/13 02:59:58;;;;;;;4.30;1.92;;;;;;;;;;4818509;29;52230;-64
2021/09/13 03:02:24;;;;;;;3.92;1.95;;;;;;;;;;4817443;29;53258;-64
2021/09/13 03:04:50;;;;;;;3.25;1.77;;;;;;;;;;4817925;29;52237;-65
2021/09/13 03:07:16;;;;;;;3.70;1.90;;;;;;;;;;4816445;29;52341;-65
2021/09/13 03:09:42;;;;;;;4.82;2.00;;;;;;;;;;4816561;29;52332;-64
2021/09/13 03:12:09;;;;;;;3.75;1.70;;;;;;;;;;4817825;29;52329;-64
2021/09/13 03:14:35;;;;;;;5.55;1.67;;;;;;;;;;4817696;29;53463;-65
2021/09/13 03:17:01;;;;;;;4.65;1.73;;;;;;;;;;4818254;29;52461;-65
2021/09/13 03:19:27;;;;;;;4.97;1.83;;;;;;;;;;4817245;29;52348;-65
2021/09/13 03:21:53;;;;;;;2.40;1.73;;;;;;;;;;4799822;29;52309;-64
2021/09/13 03:24:19;;;;;;;3.25;2.10;;;;;;;;;;4817332;29;54252;-66
2021/09/13 03:26:46;;;;;;;5.43;2.20;;;;;;;;;;4817053;29;52436;-64
2021/09/13 03:29:12;;;;;;;5.25;1.95;;;;;;;;;;4817745;29;52188;-67
2021/09/13 03:31:38;;;;;;;5.05;2.20;;;;;;;;;;4815225;29;52341;-64
2021/09/13 03:34:04;;;;;;;8.43;2.15;;;;;;;;;;4814208;29;52404;-63
2021/09/13 03:36:30;;;;;;;11.27;2.20;;;;;;;;;;4812895;29;54960;-62
2021/09/13 03:38:56;;;;;;;6.88;2.05;;;;;;;;;;4814806;29;52283;-62
2021/09/13 03:41:22;;;;;;;11.77;2.35;;;;;;;;;;4815963;29;52335;-63
2021/09/13 03:43:48;;;;;;;9.00;2.28;;;;;;;;;;4816676;29;52377;-62
2021/09/13 03:46:14;;;;;;;9.75;2.60;;;;;;;;;;4815395;29;53779;-61
2021/09/13 03:48:40;;;;;;;10.80;2.42;;;;;;;;;;4815455;29;52303;-62
2021/09/13 03:51:07;;;;;;;9.70;2.22;;;;;;;;;;4803041;29;53358;-62
2021/09/13 03:53:33;;;;;;;9.20;2.78;;;;;;;;;;4796370;29;52320;-62
2021/09/13 03:55:59;;;;;;;6.40;2.35;;;;;;;;;;4797791;29;52349;-62
2021/09/13 03:58:25;;;;;;;5.82;2.17;;;;;;;;;;4785504;29;54256;-62
2021/09/13 04:00:51;;;;;;;10.55;2.42;;;;;;;;;;4781287;29;52376;-62
2021/09/13 04:03:21;;;;;;;7.43;2.22;;;;;;;;;;4797460;29;51824;-62
2021/09/13 04:05:50;;;;;;;7.28;2.03;;;;;;;;;;4797559;29;52226;-62
2021/09/13 04:08:30;;;;;;;5.28;2.22;;;;;;;;;;4796418;29;54118;-63
2021/09/13 04:11:18;;;;;;;12.40;2.30;;;;;;;;;;4796863;29;52440;-62
2021/09/13 04:13:44;;;;;;;8.75;2.50;;;;;;;;;;4795997;29;52377;-62
2021/09/13 04:16:10;;;;;;;4.25;2.17;;;;;;;;;;4795764;29;52390;-63
2021/09/13 04:18:36;;;;;;;4.78;2.22;;;;;;;;;;4796327;29;52319;-62
2021/09/13 04:21:02;;;;;;;5.10;2.10;;;;;;;;;;4796793;29;53202;-62
2021/09/13 04:23:30;;;;;;;4.45;1.80;;;;;;;;;;4795486;29;52420;-62
2021/09/13 04:25:56;;;;;;;3.05;1.80;;;;;;;;;;4793930;29;52266;-63
2021/09/13 04:28:22;;;;;;;5.55;1.90;;;;;;;;;;4757090;29;52241;-63
2021/09/13 04:30:47;;;;;;;3.65;2.05;;;;;;;;;;4807497;29;53456;-62
2021/09/13 04:33:13;;;;;;;5.63;1.77;;;;;;;;;;4792585;29;54069;-62
2021/09/13 04:35:39;;;;;;;6.78;1.80;;;;;;;;;;4783354;29;52398;-62
2021/09/13 04:38:05;;;;;;;6.78;1.80;;;;;;;;;;4779078;29;52351;-62
2021/09/13 04:40:31;;;;;;;4.05;1.60;;;;;;;;;;4796787;29;52273;-63
2021/09/13 04:42:57;;;;;;;4.97;1.85;;;;;;;;;;4795699;29;53258;-63
2021/09/13 04:45:23;;;;;;;4.90;2.40;;;;;;;;;;4797165;29;52347;-62
2021/09/13 04:47:49;;;;;;;6.15;2.15;;;;;;;;;;4799464;29;52187;-61
2021/09/13 04:50:15;;;;;;;2.90;2.10;;;;;;;;;;4799278;29;52212;-62
2021/09/13 04:52:41;;;;;;;5.60;2.15;;;;;;;;;;4798797;29;53454;-62
2021/09/13 04:55:08;;;;;;;5.22;2.22;;;;;;;;;;4791541;29;52334;-62
2021/09/13 04:57:34;;;;;;;5.97;1.77;;;;;;;;;;4798121;29;52429;-62
2021/09/13 05:00:00;;;;;;;2.85;1.35;;;;;;;;;;4798892;29;52258;-63
2021/09/13 05:02:26;;;;;;;2.70;1.77;;;;;;;;;;4798806;29;52325;-63
2021/09/13 05:04:54;;;;;;;3.13;1.30;;;;;;;;;;4827967;29;52555;-62
2021/09/13 05:07:21;;;;;;;6.88;1.85;;;;;;;;;;4798317;29;52270;-62
2021/09/13 05:09:47;;;;;;;7.40;1.92;;;;;;;;;;4791719;29;54034;-62
2021/09/13 05:12:13;;;;;;;3.42;1.60;;;;;;;;;;4787946;29;52402;-62
2021/09/13 05:14:39;;;;;;;5.85;2.03;;;;;;;;;;4780751;29;52647;-61
2021/09/13 05:17:05;;;;;;;6.28;2.28;;;;;;;;;;4780830;29;52082;-62
2021/09/13 05:19:31;;;;;;;3.83;1.70;;;;;;;;;;4779404;29;52378;-63
2021/09/13 05:21:58;;;;;;;4.22;2.03;;;;;;;;;;4777844;29;52632;-64
2021/09/13 05:24:24;;;;;;;8.82;2.30;;;;;;;;;;4794718;29;52341;-62
2021/09/13 05:26:50;;;;;;;5.05;1.85;;;;;;;;;;4794606;29;52473;-63
2021/09/13 05:29:15;;;;;;;8.23;2.30;;;;;;;;;;4795275;29;52443;-62
2021/09/13 05:31:41;;;;;;;10.05;2.22;;;;;;;;;;4781679;29;52402;-61
2021/09/13 05:34:07;;;;;;;4.35;1.83;;;;;;;;;;4780147;29;52264;-63
2021/09/13 05:36:34;;;;;;;6.88;1.80;;;;;;;;;;4780701;29;53991;-63
2021/09/13 05:39:00;;;;;;;4.60;2.03;;;;;;;;;;4767958;29;52240;-62
2021/09/13 05:41:26;;;;;;;3.70;2.10;;;;;;;;;;4780357;29;52498;-62
2021/09/13 05:43:52;;;;;;;5.82;2.15;;;;;;;;;;4779623;29;52298;-63
2021/09/13 05:46:18;;;;;;;10.07;2.35;;;;;;;;;;4779790;29;52315;-62
2021/09/13 05:48:44;;;;;;;5.43;2.17;;;;;;;;;;4779749;29;52833;-64
2021/09/13 05:51:09;;;;;;;12.95;3.17;;;;;;;;;;4779143;29;52483;-62
2021/09/13 05:53:35;;;;;;;5.97;2.47;;;;;;;;;;4779902;29;52307;-62
2021/09/13 05:56:02;;;;;;;4.43;2.33;;;;;;;;;;4780908;29;52320;-63
2021/09/13 05:58:27;;;;;;;3.75;2.10;;;;;;;;;;4780133;29;54151;-62
2021/09/13 06:00:53;;;;;;;4.93;2.10;;;;;;;;;;4779594;29;52836;-62
2021/09/13 06:03:20;;;;;;;7.60;2.50;;;;;;;;;;4606888;29;52405;-62
2021/09/13 06:05:46;;;;;;;4.32;2.60;;;;;;;;;;4788188;29;52304;-62
2021/09/13 06:08:12;;;;;;;5.68;1.85;;;;;;;;;;4781286;29;52311;-62
2021/09/13 06:10:38;;;;;;;6.78;2.10;;;;;;;;;;4773323;29;54075;-62
2021/09/13 06:13:05;;;;;;;8.50;2.63;;;;;;;;;;4780254;29;53379;-64
2021/09/13 06:15:31;;;;;;;6.10;2.25;;;;;;;;;;4294780;29;10002043;-62
2021/09/13 06:17:57;;;;;;;4.07;2.05;;;;;;;;;;4792344;29;52286;-62
2021/09/13 06:20:25;;;;;;;9.02;2.83;;;;;;;;;;4780628;29;52347;-62
2021/09/13 06:22:51;;;;;;;4.18;2.13;;;;;;;;;;4779975;29;52250;-63
2021/09/13 06:25:17;;;;;;;11.25;2.40;;;;;;;;;;4779686;29;52244;-63
2021/09/13 06:27:43;;;;;;;9.55;2.50;;;;;;;;;;4780419;29;52271;-64
2021/09/13 06:30:09;;;;;;;3.45;2.22;;;;;;;;;;4801530;29;52605;-62
2021/09/13 06:32:35;;;;;;;7.68;2.83;;;;;;;;;;4805646;29;52254;-63
2021/09/13 06:35:01;;;;;;;11.55;2.60;;;;;;;;;;4798115;29;52184;-63
2021/09/13 06:37:27;;;;;;;6.85;2.70;;;;;;;;;;4800676;29;52389;-61
2021/09/13 06:39:58;;;;;;;8.75;2.97;;;;;;;;;;4800834;29;53934;-62
2021/09/13 06:42:25;;;;;;;7.85;2.70;;;;;;;;;;4800014;29;52348;-62
2021/09/13 06:44:51;;;;;;;7.70;2.63;;;;;;;;;;4799413;29;52234;-60
2021/09/13 06:47:33;;;;;;;5.13;2.83;;;;;;;;;;4800131;29;52243;-64
2021/09/13 06:49:59;;;;;;;8.68;3.03;;;;;;;;;;4801034;29;53582;-61
2021/09/13 06:52:25;;;;;;;8.65;2.72;;;;;;;;;;4800129;29;54005;-61
2021/09/13 06:54:51;;;;;;;6.88;2.35;;;;;;;;;;4800721;29;52213;-63
2021/09/13 06:57:17;;;;;;;8.27;3.00;;;;;;;;;;4800508;29;52145;-63
2021/09/13 06:59:43;;;;;;;9.30;2.70;;;;;;;;;;4798625;29;52261;-63
2021/09/13 07:02:09;;;;;;;7.28;2.45;;;;;;;;;;4799893;29;53272;-62
2021/09/13 07:04:35;;;;;;;6.05;2.90;;;;;;;;;;4798942;29;52353;-64
2021/09/13 07:07:01;;;;;;;5.90;2.85;;;;;;;;;;4800941;29;52354;-63
2021/09/13 07:09:27;;;;;;;4.05;2.45;;;;;;;;;;4798101;29;52427;-63
2021/09/13 07:11:53;;;;;;;6.90;2.67;;;;;;;;;;4796503;29;52351;-63
2021/09/13 07:14:19;;;;;;;5.70;2.80;;;;;;;;;;4798222;29;53420;-63
2021/09/13 07:16:45;;;;;;;7.55;2.72;;;;;;;;;;4803635;29;52496;-64
2021/09/13 07:19:11;;;;;;;5.65;2.40;;;;;;;;;;4795781;29;54004;-62
2021/09/13 07:21:37;;;;;;;5.28;2.33;;;;;;;;;;4779720;29;52325;-63
2021/09/13 07:24:03;;;;;;;2.85;2.40;;;;;;;;;;4804296;29;52352;-62
2021/09/13 07:26:29;;;;;;;9.80;2.90;;;;;;;;;;4796834;29;53581;-62
2021/09/13 07:28:55;;;;;;;4.68;2.30;;;;;;;;;;4795910;29;52516;-62
2021/09/13 07:31:21;;;;;;;7.28;2.42;;;;;;;;;;4798533;29;52119;-62
2021/09/13 07:33:47;;;;;;;15.23;2.80;;;;;;;;;;4797422;29;52482;-62
2021/09/13 07:36:13;;;;;;;6.53;2.70;;;;;;;;;;4781026;29;52814;-65
2021/09/13 07:38:40;;;;;;;4.00;2.38;;;;;;;;;;4779118;29;52287;-62
2021/09/13 07:41:06;;;;;;;8.60;3.25;;;;;;;;;;4779298;29;54049;-62
2021/09/13 07:43:32;;;;;;;7.85;2.97;;;;;;;;;;4778996;29;54291;-62
2021/09/13 07:45:58;;;;;;;8.20;3.40;;;;;;;;;;4778877;29;53591;-61
2021/09/13 07:48:24;;;;;;;8.20;2.83;;;;;;;;;;4779197;29;52449;-63
2021/09/13 07:50:50;;;;;;;6.82;3.17;;;;;;;;;;4777831;29;52439;-63
2021/09/13 07:53:16;;;;;;;5.25;2.88;;;;;;;;;;4798986;29;53137;-62
2021/09/13 07:55:42;;;;;;;8.32;2.92;;;;;;;;;;4808735;29;52422;-62
2021/09/13 07:58:08;;;;;;;5.05;2.88;;;;;;;;;;4815147;29;52727;-62
2021/09/13 08:00:35;;;;;;;6.40;2.78;;;;;;;;;;4813490;29;53546;-63
2021/09/13 08:03:02;;;;;;;7.25;3.22;;;;;;;;;;4805723;29;52367;-63
2021/09/13 08:05:28;;;;;;;4.13;2.92;;;;;;;;;;4794265;29;52635;-64
2021/09/13 08:07:54;;;;;;;9.93;3.45;;;;;;;;;;4795588;29;52475;-64
2021/09/13 08:10:20;;;;;;;10.25;3.40;;;;;;;;;;4797239;29;52425;-60
2021/09/13 08:12:46;;;;;;;7.78;2.90;;;;;;;;;;4813930;29;52318;-62
2021/09/13 08:15:12;;;;;;;6.13;3.33;;;;;;;;;;4814598;29;53500;-60
2021/09/13 08:17:38;;;;;;;7.38;3.40;;;;;;;;;;4816089;29;52978;-63
2021/09/13 08:20:06;;;;;;;7.10;3.15;;;;;;;;;;4753250;29;52924;-65
2021/09/13 08:22:32;;;;;;;11.10;3.67;;;;;;;;;;4794674;29;52329;-63
2021/09/13 08:24:58;;;;;;;6.30;3.60;;;;;;;;;;4796608;29;52282;-63
2021/09/13 08:27:24;;;;;;;5.20;3.63;;;;;;;;;;4799609;29;52168;-63
2021/09/13 08:29:50;;;;;;;10.48;3.10;;;;;;;;;;4798268;29;53114;-64
2021/09/13 08:32:16;;;;;;;14.02;3.30;;;;;;;;;;4798924;29;52230;-62
2021/09/13 08:34:42;;;;;;;8.73;2.42;;;;;;;;;;4799240;29;52263;-65
2021/09/13 08:37:08;;;;;;;7.75;3.92;;;;;;;;;;4798714;29;52282;-63
2021/09/13 08:39:34;;;;;;;9.68;2.97;;;;;;;;;;4786799;29;52161;-63
2021/09/13 08:42:00;;;;;;;7.10;2.72;;;;;;;;;;4781449;29;52319;-65
2021/09/13 08:44:26;;;;;;;5.95;2.50;;;;;;;;;;4780475;29;52182;-63
2021/09/13 08:46:59;;;;;;;6.35;3.40;;;;;;;;;;4770571;29;52258;-60
2021/09/13 08:51:51;;;;;;;11.20;3.03;;;;;;;;;;4798060;29;53009;-62
2021/09/13 08:54:17;;;;;;;9.10;3.05;;;;;;;;;;4799631;29;52343;-63
2021/09/13 08:56:46;;;;;;;8.02;2.50;;;;;;;;;;4798575;29;52306;-65
2021/09/13 08:59:16;;;;;;;6.43;2.20;;;;;;;;;;4797180;29;52303;-64
2021/09/13 09:01:44;;;;;;;11.70;2.83;;;;;;;;;;4796481;29;52352;-64
2021/09/13 09:04:13;;;;;;;7.13;2.55;;;;;;;;;;4795217;29;53703;-62
2021/09/13 09:06:41;;;;;;;5.80;2.90;;;;;;;;;;4794080;29;52484;-63
2021/09/13 09:09:15;;;;;;;4.63;2.50;;;;;;;;;;4795224;29;52357;-64
2021/09/13 09:12:01;;;;;;;6.80;2.22;;;;;;;;;;4768294;29;53370;-62
2021/09/13 09:14:46;;;;;;;6.78;2.42;;;;;;;;;;4789543;29;52576;-62
2021/09/13 09:17:26;;;;;;;4.53;2.30;;;;;;;;;;4797473;29;54155;-64
2021/09/13 09:20:05;;;;;;;12.82;2.22;;;;;;;;;;4748845;29;52316;-62
2021/09/13 09:22:33;;;;;;;11.02;2.70;;;;;;;;;;4774797;29;52795;-63
2021/09/13 09:25:01;;;;;;;9.48;2.60;;;;;;;;;;4780216;29;52444;-60
2021/09/13 09:27:27;;;;;;;13.45;5.78;;;;;;;;;;4785163;29;54477;-62
2021/09/13 09:29:53;;;;;;;6.53;3.92;;;;;;;;;;4779992;29;52471;-61
2021/09/13 09:32:25;;;;;;;13.48;4.70;;;;;;;;;;4770988;29;52465;-60
2021/09/13 09:34:52;;;;;;;25.13;8.93;;;;;;;;;;4781437;29;52337;-60
2021/09/13 10:13:22;;;;;;;36.88;12.27;;;;;;;;;;4251781;33;32625;-64
2021/09/13 10:15:49;;;;;;;87.00;21.92;;;;;;;;;;4890735;28;32769;-63
2021/09/13 10:18:15;;;;;;;58.20;16.60;;;;;;;;;;4888309;28;34610;-65
2021/09/13 10:20:42;;;;;;;52.97;16.90;;;;;;;;;;4889697;28;33264;-64
2021/09/13 10:23:08;;;;;;;51.53;16.25;;;;;;;;;;4902952;28;32704;-64
2021/09/13 10:25:34;;;;;;;45.67;14.55;;;;;;;;;;4910083;28;32647;-64
2021/09/13 10:28:05;;;;;;;57.72;15.80;;;;;;;;;;4903835;28;32527;-66
2021/09/13 10:30:34;;;;;;;40.50;13.10;;;;;;;;;;4892942;28;33840;-65
2021/09/13 10:33:11;;;;;;;39.20;14.30;;;;;;;;;;4920493;28;32632;-66
2021/09/13 10:36:05;;;;;;;45.20;13.93;;;;;;;;;;4900353;28;32505;-65
2021/09/13 10:38:45;;;;;;;37.85;13.75;;;;;;;;;;4919287;28;32638;-66
2021/09/13 10:41:12;;;;;;;36.95;12.55;;;;;;;;;;4920972;28;32939;-67
2021/09/13 10:44:08;;;;;;;36.67;12.45;;;;;;;;;;4908811;28;32573;-65
2021/09/13 10:47:04;;;;;;;34.30;11.63;;;;;;;;;;4914943;28;32623;-65
2021/09/13 10:49:31;;;;;;;43.55;11.82;;;;;;;;;;4909476;28;32755;-65
2021/09/13 10:52:33;;;;;;;38.38;12.48;;;;;;;;;;4900306;28;32683;-66
2021/09/13 10:55:08;;;;;;;28.40;11.05;;;;;;;;;;4908073;28;33965;-66
2021/09/13 10:57:57;;;;;;;34.33;11.77;;;;;;;;;;4883646;28;32649;-66
2021/09/13 11:00:45;;;;;;;24.10;10.10;;;;;;;;;;4696932;28;37217;-68
2021/09/13 11:03:24;;;;;;;26.95;9.95;;;;;;;;;;4843623;29;32582;-66
2021/09/13 11:06:08;;;;;;;26.48;8.63;;;;;;;;;;4817380;29;34775;-66
2021/09/13 11:08:40;;;;;;;17.77;8.55;;;;;;;;;;4830183;29;32658;-66
2021/09/13 11:11:19;;;;;;;23.25;8.20;;;;;;;;;;4817402;29;34377;-66
2021/09/13 11:14:06;;;;;;;24.17;9.25;;;;;;;;;;4827931;29;32771;-67
2021/09/13 11:16:38;;;;;;;20.67;8.38;;;;;;;;;;4838960;29;32729;-66
2021/09/13 11:19:09;;;;;;;27.90;8.77;;;;;;;;;;4842925;29;33819;-66
2021/09/13 11:21:38;;;;;;;21.55;8.48;;;;;;;;;;4833528;29;34273;-67
2021/09/13 11:24:14;;;;;;;27.50;8.10;;;;;;;;;;4820979;29;33804;-66
2021/09/13 11:26:48;;;;;;;21.53;7.73;;;;;;;;;;4484576;29;10000510;-66
2021/09/13 11:29:31;;;;;;;22.75;8.23;;;;;;;;;;4802625;29;32728;-66
2021/09/13 11:32:14;;;;;;;18.98;7.43;;;;;;;;;;4799179;29;33648;-64
2021/09/13 11:34:42;;;;;;;;;;;;;;;;;;4823520;29;32699;-66
2021/09/13 11:38:07;;;;;;;17.52;7.18;;;;;;;;;;4162104;33;53130;-64
2021/09/13 11:40:33;;;;;;;18.27;7.38;;;;;;;;;;4864915;28;52312;-63
2021/09/13 11:43:09;;;;;;;21.40;7.78;;;;;;;;;;4865393;29;54312;-63
2021/09/13 11:45:35;;;;;;;21.95;7.25;;;;;;;;;;4858190;29;52346;-63
2021/09/13 11:48:06;;;;;;;23.70;7.43;;;;;;;;;;4528039;28;10000646;-63
2021/09/13 11:50:34;;;;;;;14.68;6.15;;;;;;;;;;4840889;29;52251;-64
2021/09/13 11:53:13;;;;;;;15.77;6.38;;;;;;;;;;4833228;29;53462;-63
2021/09/13 11:55:39;;;;;;;17.80;6.47;;;;;;;;;;4780122;29;52386;-63
2021/09/13 11:58:07;;;;;;;19.17;7.00;;;;;;;;;;4779804;29;52527;-61
2021/09/13 12:00:36;;;;;;;20.77;6.18;;;;;;;;;;4840498;29;52258;-62
2021/09/13 12:03:03;;;;;;;16.58;5.80;;;;;;;;;;4842102;29;52695;-64
2021/09/13 12:05:30;;;;;;;18.35;6.15;;;;;;;;;;4830977;29;52419;-61
2021/09/13 12:07:57;;;;;;;39.92;7.90;;;;;;;;;;4831062;29;52280;-61
2021/09/13 12:10:29;;;;;;;77.38;8.98;;;;;;;;;;4840376;29;52580;-63
2021/09/13 12:12:59;;;;;;;94.78;11.05;;;;;;;;;;4853814;28;54001;-63
2021/09/13 12:15:27;;;;;;;117.35;12.32;;;;;;;;;;4849259;29;52397;-61
2021/09/13 12:17:54;;;;;;;154.43;14.18;;;;;;;;;;4848480;29;52239;-62
2021/09/13 12:20:35;;;;;;;109.63;9.98;;;;;;;;;;4848463;29;52298;-63
2021/09/13 12:23:11;;;;;;;62.53;9.00;;;;;;;;;;4787805;28;57729;-64
2021/09/13 12:25:49;;;;;;;65.72;9.23;;;;;;;;;;4867176;29;53967;-63
2021/09/13 12:28:35;;;;;;;59.30;7.88;;;;;;;;;;4850575;29;52424;-64
2021/09/13 12:31:07;;;;;;;39.08;6.90;;;;;;;;;;4858696;29;52927;-63
2021/09/13 12:33:46;;;;;;;34.38;7.63;;;;;;;;;;4851546;29;52646;-63
2021/09/13 12:36:23;;;;;;;31.67;6.13;;;;;;;;;;4849393;28;53399;-64
2021/09/13 12:38:57;;;;;;;30.27;7.05;;;;;;;;;;4864418;29;54101;-63
2021/09/13 12:41:40;;;;;;;43.38;8.38;;;;;;;;;;4864041;29;52291;-63
2021/09/13 12:44:23;;;;;;;;;;;;;;;;;;4864543;29;52480;-64
2021/09/13 12:46:54;;;;;;;30.42;6.93;;;;;;;;;;4854926;29;52308;-61
2021/09/13 12:49:21;;;;;;;28.15;7.00;;;;;;;;;;4853503;29;53131;-64
2021/09/13 12:52:01;;;;;;;20.05;6.78;;;;;;;;;;4852509;29;52276;-64
2021/09/13 12:54:35;;;;;;;18.95;6.13;;;;;;;;;;4851322;29;52214;-64
2021/09/13 12:57:01;;;;;;;28.83;7.20;;;;;;;;;;4833589;29;54042;-64
2021/09/13 12:59:27;;;;;;;19.83;6.28;;;;;;;;;;4851433;29;52252;-64
2021/09/13 13:01:53;;;;;;;20.45;5.45;;;;;;;;;;4852633;29;53498;-62
2021/09/13 13:04:22;;;;;;;20.42;6.57;;;;;;;;;;4852939;29;52275;-64
2021/09/13 13:07:10;;;;;;;29.23;5.75;;;;;;;;;;4853640;29;52324;-64
2021/09/13 13:09:36;;;;;;;17.63;5.90;;;;;;;;;;4839614;29;53788;-63
2021/09/13 13:12:02;;;;;;;16.95;5.90;;;;;;;;;;4833885;29;54170;-63
2021/09/13 13:14:28;;;;;;;24.98;6.00;;;;;;;;;;4845500;29;52378;-63
2021/09/13 13:16:54;;;;;;;19.05;5.70;;;;;;;;;;4837565;29;52323;-63
2021/09/13 13:19:20;;;;;;;18.50;6.22;;;;;;;;;;4847640;29;52231;-63
2021/09/13 13:21:48;;;;;;;23.58;5.53;;;;;;;;;;4853006;29;52281;-63
2021/09/13 13:24:20;;;;;;;13.73;5.40;;;;;;;;;;4828184;29;53322;-63
2021/09/13 13:26:47;;;;;;;12.07;5.25;;;;;;;;;;4845214;29;53846;-64
2021/09/13 13:29:13;;;;;;;12.75;4.80;;;;;;;;;;4809448;23;53462;-63
2021/09/13 13:31:40;;;;;;;12.63;5.32;;;;;;;;;;4719411;29;52382;-64
2021/09/13 13:34:06;;;;;;;22.30;5.57;;;;;;;;;;4709208;29;53742;-65
2021/09/13 13:36:32;;;;;;;15.25;5.75;;;;;;;;;;4707102;29;52323;-64
2021/09/13 13:38:58;;;;;;;18.50;5.50;;;;;;;;;;4707226;29;54066;-65
2021/09/13 13:41:24;;;;;;;20.02;6.38;;;;;;;;;;4715364;29;52411;-64
2021/09/13 13:43:50;;;;;;;17.90;6.00;;;;;;;;;;4695955;29;52769;-65
2021/09/13 13:46:16;;;;;;;18.20;5.60;;;;;;;;;;4686407;29;53522;-64
2021/09/13 13:48:42;;;;;;;16.50;5.57;;;;;;;;;;4696896;29;53441;-63
2021/09/13 13:51:08;;;;;;;19.63;5.32;;;;;;;;;;4713898;29;52888;-64
2021/09/13 13:53:34;;;;;;;19.23;5.95;;;;;;;;;;4691445;29;52346;-64
2021/09/13 13:56:00;;;;;;;19.75;5.32;;;;;;;;;;4717896;29;53853;-63
2021/09/13 13:58:26;;;;;;;21.30;5.25;;;;;;;;;;4720701;29;52387;-63
2021/09/13 14:00:53;;;;;;;35.00;5.35;;;;;;;;;;4704455;29;54142;-65
2021/09/13 14:03:19;;;;;;;22.33;5.30;;;;;;;;;;4702031;29;52375;-64
2021/09/13 14:05:46;;;;;;;20.73;5.10;;;;;;;;;;4709240;29;52345;-64
2021/09/13 14:33:43;;;;;;;53.88;6.28;;;;;;;;;;4228930;33;53944;-65
2021/09/13 14:36:09;;;;;;;57.08;6.13;;;;;;;;;;4875080;28;53409;-65
2021/09/13 14:38:35;;;;;;;68.43;8.50;;;;;;;;;;4878344;28;52492;-68
2021/09/13 14:41:01;;;;;;;50.80;6.85;;;;;;;;;;4877133;28;52381;-66
2021/09/13 14:43:27;;;;;;;51.65;6.53;;;;;;;;;;4865583;28;52629;-65
2021/09/13 14:45:53;;;;;;;41.97;5.35;;;;;;;;;;4878770;28;52498;-65
2021/09/13 14:48:19;;;;;;;28.25;4.88;;;;;;;;;;4882006;28;52401;-64
2021/09/13 14:50:46;;;;;;;46.08;5.82;;;;;;;;;;4888832;28;53737;-64
2021/09/13 14:53:12;;;;;;;36.13;6.35;;;;;;;;;;4883073;28;53524;-66
2021/09/13 14:55:38;;;;;;;35.55;5.97;;;;;;;;;;4882623;28;53394;-66
2021/09/13 14:58:04;;;;;;;22.70;5.60;;;;;;;;;;4842223;28;53986;-65
2021/09/13 15:00:30;;;;;;;28.80;5.93;;;;;;;;;;4863957;28;53119;-68
2021/09/13 15:02:56;;;;;;;27.05;5.47;;;;;;;;;;4867445;28;52558;-66
2021/09/13 15:05:22;;;;;;;45.20;6.80;;;;;;;;;;4868778;28;52367;-67
2021/09/13 15:07:49;;;;;;;28.13;5.97;;;;;;;;;;4875307;28;53119;-68
2021/09/13 15:10:15;;;;;;;35.80;6.88;;;;;;;;;;4876074;28;53431;-67
2021/09/13 15:12:41;;;;;;;39.75;7.30;;;;;;;;;;4886395;28;53062;-66
2021/09/13 15:15:08;;;;;;;21.65;5.80;;;;;;;;;;4875197;28;52513;-66
2021/09/13 15:17:35;;;;;;;29.13;6.70;;;;;;;;;;4876491;28;52294;-68
2021/09/13 15:20:01;;;;;;;18.70;6.32;;;;;;;;;;4861053;28;53886;-67
2021/09/13 15:22:27;;;;;;;34.60;6.72;;;;;;;;;;4861764;28;54446;-67
2021/09/13 15:24:53;;;;;;;20.67;6.60;;;;;;;;;;4876086;28;53369;-65
2021/09/13 15:27:19;;;;;;;25.27;6.78;;;;;;;;;;4872135;28;53367;-66
2021/09/13 15:29:46;;;;;;;17.92;6.00;;;;;;;;;;4861014;28;53179;-66
2021/09/13 15:32:12;;;;;;;26.35;5.40;;;;;;;;;;4882956;28;52214;-66
2021/09/13 15:34:38;;;;;;;20.38;4.85;;;;;;;;;;4874345;28;53175;-66
2021/09/13 15:37:04;;;;;;;19.65;5.30;;;;;;;;;;4874508;28;52629;-67
2021/09/13 15:39:30;;;;;;;24.77;5.32;;;;;;;;;;4867767;28;53244;-66
2021/09/13 15:41:57;;;;;;;15.45;4.85;;;;;;;;;;4868715;28;53875;-66
2021/09/13 15:44:23;;;;;;;15.88;4.95;;;;;;;;;;4846114;28;53660;-62
2021/09/13 15:46:52;;;;;;;22.63;4.82;;;;;;;;;;4863410;28;53488;-61